Time;durP1;ratioP1;P1;durP2;ratioP2;P2;SDS_P1;SDS_P2;PMS_P1;PMS_P2;Temp;Humidity;BMP_temperature;BMP_pressure;BME280_temperature;BME280_humidity;BME280_pressure;Samples;Min_cycle;Max_cycle;Signal;HPM_P1;HPM_P2
2023/02/19 00:01:41;;;;;;;20.08;9.20;;;9.80;99.90;;;;;;5002671;28;20718;-80
2023/02/19 00:04:17;;;;;;;22.38;14.25;;;9.80;99.90;;;;;;4986102;28;20026;-82
2023/02/19 00:06:44;;;;;;;17.75;11.43;;;9.80;99.90;;;;;;5003739;28;20053;-80
2023/02/19 00:09:11;;;;;;;23.98;16.30;;;9.80;99.90;;;;;;4973902;28;20034;-80
2023/02/19 00:11:36;;;;;;;16.38;9.38;;;9.80;99.90;;;;;;4980867;28;20045;-80
2023/02/19 00:14:02;;;;;;;21.05;14.00;;;9.80;99.90;;;;;;4978744;28;20042;-82
2023/02/19 00:16:28;;;;;;;22.33;13.02;;;9.90;99.90;;;;;;4970208;28;20520;-80
2023/02/19 00:18:55;;;;;;;20.75;11.95;;;9.80;99.90;;;;;;5011509;28;20034;-80
2023/02/19 00:21:23;;;;;;;15.80;10.15;;;9.80;99.90;;;;;;4982276;28;20828;-81
2023/02/19 00:23:50;;;;;;;25.80;16.73;;;9.80;99.90;;;;;;4992691;28;20393;-80
2023/02/19 00:26:15;;;;;;;18.13;10.60;;;9.80;99.90;;;;;;4989444;28;20110;-80
2023/02/19 00:28:42;;;;;;;25.85;16.52;;;9.80;99.90;;;;;;4998086;28;20552;-80
2023/02/19 00:31:11;;;;;;;21.75;14.45;;;9.80;99.90;;;;;;4998593;28;20604;-81
2023/02/19 00:33:37;;;;;;;22.73;11.82;;;9.80;99.90;;;;;;5000240;28;20026;-80
2023/02/19 00:36:03;;;;;;;18.58;11.32;;;9.80;99.90;;;;;;4997615;28;20041;-81
2023/02/19 00:38:28;;;;;;;16.15;10.57;;;9.80;99.90;;;;;;4990078;28;20038;-80
2023/02/19 00:40:54;;;;;;;22.27;12.40;;;9.80;99.90;;;;;;5001680;28;20026;-82
2023/02/19 00:43:20;;;;;;;18.73;11.43;;;9.80;99.90;;;;;;4979980;28;20042;-80
2023/02/19 00:45:45;;;;;;;16.92;10.25;;;9.80;99.90;;;;;;4985531;28;20033;-81
2023/02/19 00:48:11;;;;;;;13.13;8.93;;;9.80;99.90;;;;;;4982503;28;20038;-80
2023/02/19 00:50:36;;;;;;;19.33;9.73;;;9.80;99.90;;;;;;4981707;28;20044;-80
2023/02/19 00:53:02;;;;;;;17.00;11.25;;;9.80;99.90;;;;;;4994606;28;20042;-81
2023/02/19 00:55:27;;;;;;;18.60;12.15;;;9.80;99.90;;;;;;4987246;28;20046;-80
2023/02/19 00:57:53;;;;;;;19.60;13.55;;;9.80;99.90;;;;;;4964531;28;20054;-81
2023/02/19 01:00:18;;;;;;;17.40;11.20;;;9.80;99.90;;;;;;5002045;28;20045;-80
2023/02/19 01:02:44;;;;;;;14.60;7.25;;;9.80;99.90;;;;;;4995177;28;20040;-81
2023/02/19 01:05:10;;;;;;;17.02;9.70;;;9.80;99.90;;;;;;4995441;28;20040;-80
2023/02/19 01:07:36;;;;;;;17.35;10.77;;;9.80;99.90;;;;;;4991171;28;20035;-80
2023/02/19 01:10:02;;;;;;;21.77;13.77;;;9.80;99.90;;;;;;4996298;28;20030;-80
2023/02/19 01:12:27;;;;;;;25.92;15.93;;;9.80;99.90;;;;;;4995579;28;20030;-81
2023/02/19 01:14:53;;;;;;;30.67;18.45;;;9.80;99.90;;;;;;5008819;28;20393;-80
2023/02/19 01:17:19;;;;;;;18.05;12.52;;;9.80;99.90;;;;;;5009094;28;20518;-80
2023/02/19 01:19:45;;;;;;;23.55;15.45;;;9.80;99.90;;;;;;4993302;28;20034;-81
2023/02/19 01:22:11;;;;;;;20.67;12.15;;;9.80;99.90;;;;;;5006872;28;20487;-80
2023/02/19 01:24:36;;;;;;;25.20;13.90;;;9.80;99.90;;;;;;5010252;28;20123;-80
2023/02/19 01:27:02;;;;;;;22.35;11.38;;;9.90;99.90;;;;;;5009768;28;20079;-81
2023/02/19 01:29:27;;;;;;;28.33;19.00;;;9.80;99.90;;;;;;5009660;28;20025;-80
2023/02/19 01:31:53;;;;;;;39.97;26.65;;;9.80;99.90;;;;;;4992590;28;20649;-79
2023/02/19 01:34:19;;;;;;;24.90;14.48;;;9.80;99.90;;;;;;5008788;28;20064;-80
2023/02/19 01:36:44;;;;;;;26.95;17.17;;;9.80;99.90;;;;;;5009510;28;20558;-80
2023/02/19 01:39:10;;;;;;;23.52;15.60;;;9.80;99.90;;;;;;5009758;28;20469;-81
2023/02/19 01:41:38;;;;;;;29.42;20.13;;;9.90;99.90;;;;;;4990770;28;20371;-80
2023/02/19 01:44:10;;;;;;;44.97;27.52;;;9.80;99.90;;;;;;5010009;28;20038;-80
2023/02/19 01:46:39;;;;;;;25.52;16.17;;;9.80;99.90;;;;;;5009589;28;20037;-80
2023/02/19 01:49:09;;;;;;;36.35;24.17;;;9.80;99.90;;;;;;5008072;28;20065;-81
2023/02/19 01:51:37;;;;;;;26.83;17.33;;;9.70;99.90;;;;;;5007914;28;20034;-80
2023/02/19 01:54:03;;;;;;;30.02;20.25;;;9.80;99.90;;;;;;4995337;28;20522;-79
2023/02/19 01:56:29;;;;;;;25.40;16.45;;;9.80;99.90;;;;;;5007800;28;20033;-80
2023/02/19 01:58:55;;;;;;;29.92;18.60;;;9.80;99.90;;;;;;5009321;28;20286;-81
2023/02/19 02:01:20;;;;;;;27.58;17.65;;;9.80;99.90;;;;;;4992658;28;20031;-79
2023/02/19 02:03:47;;;;;;;40.47;28.23;;;9.70;99.90;;;;;;5010950;28;20030;-81
2023/02/19 02:06:23;;;;;;;27.38;21.52;;;9.80;99.90;;;;;;4990692;28;20067;-80
2023/02/19 02:11:34;;;;;;;23.75;13.88;;;9.70;99.90;;;;;;5009500;28;20052;-80
2023/02/19 02:13:59;;;;;;;29.02;17.77;;;9.80;99.90;;;;;;4992888;28;20097;-80
2023/02/19 02:16:44;;;;;;;26.60;16.90;;;9.70;99.90;;;;;;4990796;28;20114;-79
2023/02/19 02:19:30;;;;;;;29.70;17.83;;;9.80;99.90;;;;;;5010352;28;20037;-79
2023/02/19 02:22:33;;;;;;;31.00;18.05;;;9.80;99.90;;;;;;5010242;28;20026;-81
2023/02/19 02:25:36;;;;;;;32.90;19.27;;;9.80;99.90;;;;;;5006750;28;20030;-81
2023/02/19 02:28:28;;;;;;;30.17;18.95;;;9.70;99.90;;;;;;5008281;28;20037;-81
2023/02/19 02:30:55;;;;;;;38.22;21.17;;;9.70;99.90;;;;;;5004534;28;20061;-81
2023/02/19 02:33:38;;;;;;;33.67;17.02;;;9.70;99.90;;;;;;4979865;28;20030;-81
2023/02/19 02:36:19;;;;;;;22.65;14.60;;;9.70;99.90;;;;;;4962632;28;20038;-80
2023/02/19 02:38:45;;;;;;;33.35;20.92;;;9.70;99.90;;;;;;4973031;28;20120;-80
2023/02/19 02:41:11;;;;;;;41.25;22.90;;;9.70;99.90;;;;;;4961799;28;20038;-80
2023/02/19 02:43:37;;;;;;;28.08;15.23;;;9.60;99.90;;;;;;4994539;28;20107;-81
2023/02/19 02:46:03;;;;;;;36.63;17.50;;;9.70;99.90;;;;;;4997334;28;20030;-82
2023/02/19 02:48:39;;;;;;;30.92;17.15;;;9.70;99.90;;;;;;4998221;28;20042;-79
2023/02/19 02:51:28;;;;;;;33.03;15.43;;;9.70;99.90;;;;;;4975615;28;20033;-80
2023/02/19 02:56:42;;;;;;;39.67;23.10;;;9.60;99.90;;;;;;5000141;28;20266;-80
2023/02/19 02:59:08;;;;;;;31.70;14.18;;;9.70;99.90;;;;;;4973254;28;20034;-79
2023/02/19 03:08:02;;;;;;;40.42;21.30;;;9.60;99.90;;;;;;5016910;28;20088;-80
2023/02/19 03:10:43;;;;;;;37.70;21.58;;;9.60;99.90;;;;;;5008628;28;20053;-81
2023/02/19 03:21:38;;;;;;;29.13;13.32;;;9.60;99.90;;;;;;5004163;28;20053;-81
2023/02/19 03:26:52;;;;;;;39.03;17.05;;;9.60;99.90;;;;;;5003578;28;20040;-82
2023/02/19 03:29:22;;;;;;;29.33;14.70;;;9.60;99.90;;;;;;4999904;28;20040;-81
2023/02/19 03:31:48;;;;;;;33.20;14.07;;;9.60;99.90;;;;;;4999551;28;20136;-82
2023/02/19 03:34:19;;;;;;;31.63;16.98;;;9.60;99.90;;;;;;4976844;28;20497;-82
2023/02/19 03:36:57;;;;;;;30.10;15.63;;;9.50;99.90;;;;;;5004804;28;20654;-82
2023/02/19 03:39:22;;;;;;;29.73;13.77;;;9.60;99.90;;;;;;5007266;28;20484;-83
2023/02/19 03:41:54;;;;;;;25.42;14.77;;;9.70;99.90;;;;;;4991604;28;20099;-82
2023/02/19 03:44:23;;;;;;;36.33;16.77;;;9.60;99.90;;;;;;5000572;28;20113;-82
2023/02/19 03:47:26;;;;;;;32.20;15.05;;;9.60;99.90;;;;;;5005057;28;20080;-82
2023/02/19 03:50:11;;;;;;;31.70;14.52;;;9.60;99.90;;;;;;4987919;28;20026;-82
2023/02/19 03:53:04;;;;;;;37.00;15.60;;;9.60;99.90;;;;;;5002844;28;20036;-82
2023/02/19 03:55:38;;;;;;;24.17;10.88;;;9.50;99.90;;;;;;4996426;28;20060;-83
2023/02/19 03:58:11;;;;;;;30.85;12.77;;;9.50;99.90;;;;;;5006615;28;20057;-82
2023/02/19 04:00:40;;;;;;;34.45;15.48;;;9.50;99.90;;;;;;4975983;28;20053;-82
2023/02/19 04:03:25;;;;;;;32.95;16.88;;;9.50;99.90;;;;;;4986863;28;20037;-81
2023/02/19 04:05:54;;;;;;;16.92;8.45;;;9.40;99.90;;;;;;4992766;28;20034;-82
2023/02/19 04:08:21;;;;;;;23.83;12.85;;;9.50;99.90;;;;;;5014154;28;20033;-81
2023/02/19 04:10:46;;;;;;;26.05;13.50;;;9.70;99.90;;;;;;4996948;28;20034;-82
2023/02/19 04:13:34;;;;;;;27.25;13.40;;;9.50;99.90;;;;;;5007304;28;20042;-80
2023/02/19 04:16:02;;;;;;;25.98;11.93;;;9.40;99.90;;;;;;4997537;28;20041;-82
2023/02/19 04:18:30;;;;;;;32.45;15.52;;;9.40;99.90;;;;;;5011686;28;20034;-81
2023/02/19 04:20:55;;;;;;;28.17;14.68;;;9.50;99.90;;;;;;5012362;28;20041;-81
2023/02/19 04:23:22;;;;;;;33.80;14.35;;;9.40;99.90;;;;;;5009149;28;20433;-81
2023/02/19 04:25:50;;;;;;;29.90;14.32;;;9.40;99.90;;;;;;5013114;28;20038;-81
2023/02/19 04:28:16;;;;;;;23.98;11.30;;;9.40;99.90;;;;;;5009641;28;20044;-81
2023/02/19 04:30:42;;;;;;;14.55;8.32;;;9.40;99.90;;;;;;5010946;28;20113;-80
2023/02/19 04:33:08;;;;;;;30.45;14.15;;;9.40;99.90;;;;;;4996724;28;20036;-81
2023/02/19 04:35:33;;;;;;;26.95;12.63;;;9.30;99.90;;;;;;4988423;28;20038;-81
2023/02/19 04:37:59;;;;;;;31.08;13.57;;;9.40;99.90;;;;;;4981784;28;20375;-81
2023/02/19 04:40:24;;;;;;;16.98;9.88;;;9.30;99.90;;;;;;4984912;28;20066;-81
2023/02/19 04:42:50;;;;;;;21.00;11.93;;;9.50;99.90;;;;;;4965811;28;20037;-81
2023/02/19 04:45:15;;;;;;;23.23;11.85;;;9.40;99.90;;;;;;4974150;28;20030;-80
2023/02/19 04:47:41;;;;;;;24.38;12.07;;;9.40;99.90;;;;;;5006399;28;20036;-80
2023/02/19 04:50:07;;;;;;;20.33;9.23;;;9.30;99.90;;;;;;4966715;28;20058;-81
2023/02/19 04:52:32;;;;;;;18.45;10.60;;;9.30;99.90;;;;;;4978894;28;20037;-81
2023/02/19 04:54:58;;;;;;;31.00;15.40;;;9.20;99.90;;;;;;4980610;28;20044;-81
2023/02/19 04:57:23;;;;;;;25.00;12.55;;;9.30;99.90;;;;;;4997593;28;20091;-81
2023/02/19 04:59:49;;;;;;;22.48;11.75;;;9.20;99.90;;;;;;4982293;28;20030;-81
2023/02/19 05:02:14;;;;;;;22.40;11.73;;;9.70;99.90;;;;;;4979509;28;20050;-80
2023/02/19 05:04:40;;;;;;;31.10;13.52;;;9.30;99.90;;;;;;5003640;28;20026;-81
2023/02/19 05:07:05;;;;;;;23.40;12.82;;;9.20;99.90;;;;;;4981875;28;20036;-81
2023/02/19 05:09:31;;;;;;;21.88;11.82;;;9.30;99.90;;;;;;4986092;28;20596;-82
2023/02/19 05:11:57;;;;;;;34.65;15.45;;;9.30;99.90;;;;;;4975321;28;20027;-81
2023/02/19 05:14:22;;;;;;;21.20;11.35;;;9.20;99.90;;;;;;4998616;28;20038;-81
2023/02/19 05:16:48;;;;;;;28.00;13.77;;;9.20;99.90;;;;;;4979544;28;20030;-81
2023/02/19 05:19:13;;;;;;;30.02;13.40;;;9.20;99.90;;;;;;4983461;28;20030;-81
2023/02/19 05:21:39;;;;;;;17.98;10.50;;;9.20;99.90;;;;;;4985007;28;20117;-82
2023/02/19 05:24:05;;;;;;;21.95;12.95;;;9.20;99.90;;;;;;4992558;28;20033;-82
2023/02/19 05:26:31;;;;;;;28.02;14.57;;;9.20;99.90;;;;;;4985301;28;20027;-82
2023/02/19 05:28:56;;;;;;;25.00;12.98;;;9.10;99.90;;;;;;5000216;28;20125;-82
2023/02/19 05:31:22;;;;;;;24.63;13.70;;;9.50;99.90;;;;;;4978527;28;20034;-83
2023/02/19 05:33:49;;;;;;;24.58;12.57;;;9.20;99.90;;;;;;4975401;28;20029;-83
2023/02/19 05:36:15;;;;;;;32.63;13.55;;;9.10;99.90;;;;;;4981004;28;20125;-82
2023/02/19 05:38:41;;;;;;;26.98;13.45;;;9.20;99.90;;;;;;4987400;28;20057;-83
2023/02/19 05:41:12;;;;;;;29.55;15.90;;;9.20;99.90;;;;;;4980421;28;20553;-83
2023/02/19 05:43:38;;;;;;;19.80;9.82;;;9.10;99.90;;;;;;4981907;28;20510;-84
2023/02/19 05:46:05;;;;;;;28.55;13.00;;;9.70;99.90;;;;;;4982146;28;20078;-84
2023/02/19 05:48:30;;;;;;;25.15;12.23;;;9.60;99.90;;;;;;4998798;28;20076;-84
2023/02/19 05:51:02;;;;;;;28.83;13.25;;;9.60;99.90;;;;;;4981970;28;20037;-84
2023/02/19 05:53:28;;;;;;;16.90;6.60;;;9.20;99.90;;;;;;4993630;28;20030;-84
2023/02/19 05:55:54;;;;;;;28.95;13.23;;;9.10;99.90;;;;;;4967205;28;20034;-83
2023/02/19 05:58:20;;;;;;;17.25;8.90;;;9.20;99.90;;;;;;4984132;28;20120;-83
2023/02/19 06:00:45;;;;;;;22.50;12.85;;;9.10;99.90;;;;;;4993754;28;20091;-81
2023/02/19 06:03:11;;;;;;;25.30;13.70;;;9.20;99.90;;;;;;4981321;28;20045;-82
2023/02/19 06:05:37;;;;;;;28.05;15.25;;;9.10;99.90;;;;;;4996973;28;20034;-81
2023/02/19 06:08:02;;;;;;;23.70;12.45;;;9.10;99.90;;;;;;4977471;28;20125;-81
2023/02/19 06:10:28;;;;;;;16.73;8.13;;;9.10;99.90;;;;;;4982196;28;20034;-80
2023/02/19 06:12:53;;;;;;;17.95;10.45;;;9.20;99.90;;;;;;4978754;28;20523;-82
2023/02/19 06:15:20;;;;;;;19.52;11.15;;;9.10;99.90;;;;;;4984778;28;20038;-80
2023/02/19 06:17:45;;;;;;;29.63;12.60;;;9.10;99.90;;;;;;4991193;28;20030;-82
2023/02/19 06:20:11;;;;;;;22.23;12.43;;;8.80;99.90;;;;;;4997315;28;20081;-81
2023/02/19 06:22:36;;;;;;;18.80;11.00;;;9.10;99.90;;;;;;4987727;28;20346;-81
2023/02/19 06:25:02;;;;;;;24.48;11.35;;;9.10;99.90;;;;;;4980285;28;20057;-81
2023/02/19 06:27:28;;;;;;;21.65;10.45;;;9.00;99.90;;;;;;4988349;28;20038;-80
2023/02/19 06:29:53;;;;;;;22.63;9.95;;;9.10;99.90;;;;;;4999046;28;20034;-81
2023/02/19 06:32:19;;;;;;;16.42;10.05;;;9.00;99.90;;;;;;4999309;28;20053;-80
2023/02/19 06:34:44;;;;;;;23.83;10.07;;;9.00;99.90;;;;;;5004989;28;20042;-81
2023/02/19 06:37:10;;;;;;;27.25;11.25;;;9.20;99.90;;;;;;5005003;28;20044;-82
2023/02/19 06:39:36;;;;;;;23.27;11.20;;;9.10;99.90;;;;;;4999779;28;20042;-80
2023/02/19 06:42:01;;;;;;;17.95;9.85;;;9.00;99.90;;;;;;5001058;28;20089;-83
2023/02/19 06:44:27;;;;;;;17.33;9.50;;;9.00;99.90;;;;;;4986438;28;20038;-81
2023/02/19 06:46:55;;;;;;;20.90;10.95;;;9.00;99.90;;;;;;5001950;28;20030;-82
2023/02/19 06:49:21;;;;;;;21.70;10.35;;;9.00;99.90;;;;;;5000363;28;20045;-81
2023/02/19 06:51:47;;;;;;;25.27;14.38;;;9.00;99.90;;;;;;4984631;28;20500;-81
2023/02/19 06:54:12;;;;;;;12.20;5.95;;;9.00;99.90;;;;;;4997636;28;20062;-81
2023/02/19 06:56:39;;;;;;;24.15;13.57;;;8.70;99.90;;;;;;4995422;28;20057;-82
2023/02/19 06:59:12;;;;;;;21.08;11.88;;;9.20;99.90;;;;;;4998886;28;20081;-83
2023/02/19 07:01:38;;;;;;;29.77;15.18;;;8.90;99.90;;;;;;5000328;28;20556;-84
2023/02/19 07:04:04;;;;;;;55.70;15.73;;;8.90;99.90;;;;;;4987015;28;20050;-83
2023/02/19 07:06:30;;;;;;;20.08;12.30;;;9.00;99.90;;;;;;4984712;28;20394;-82
2023/02/19 07:08:56;;;;;;;12.32;6.78;;;9.00;99.90;;;;;;5004742;28;20577;-83
2023/02/19 07:11:22;;;;;;;14.75;8.15;;;9.00;99.90;;;;;;4982409;28;20084;-82
2023/02/19 07:13:52;;;;;;;16.58;7.85;;;9.00;99.90;;;;;;4987250;28;20030;-84
2023/02/19 07:16:18;;;;;;;23.35;10.70;;;8.70;99.90;;;;;;4972328;28;20034;-82
2023/02/19 07:18:44;;;;;;;21.50;10.15;;;9.00;99.90;;;;;;5001552;28;20065;-82
2023/02/19 07:21:12;;;;;;;23.92;11.07;;;8.90;99.90;;;;;;4985996;28;20041;-81
2023/02/19 07:23:37;;;;;;;24.33;11.38;;;8.80;99.90;;;;;;5002791;28;20094;-82
2023/02/19 07:26:13;;;;;;;17.83;11.85;;;9.60;99.90;;;;;;4982906;28;20054;-82
2023/02/19 07:28:40;;;;;;;21.50;11.40;;;8.90;99.90;;;;;;4969509;28;20049;-81
2023/02/19 07:31:05;;;;;;;26.10;14.48;;;9.00;99.90;;;;;;5001613;28;20045;-82
2023/02/19 07:33:31;;;;;;;26.77;15.07;;;8.90;99.90;;;;;;4982926;28;20034;-83
2023/02/19 07:35:56;;;;;;;18.25;11.10;;;8.90;99.90;;;;;;4990027;28;20433;-82
2023/02/19 07:38:23;;;;;;;22.60;13.50;;;8.90;99.90;;;;;;4974748;28;20085;-84
2023/02/19 07:40:55;;;;;;;29.33;15.88;;;8.90;99.90;;;;;;4983577;28;20033;-82
2023/02/19 07:43:21;;;;;;;31.17;17.75;;;8.90;99.90;;;;;;4980582;28;20037;-83
2023/02/19 07:45:47;;;;;;;31.13;17.38;;;9.00;99.90;;;;;;5008190;28;20026;-84
2023/02/19 07:48:14;;;;;;;37.63;21.23;;;9.00;99.90;;;;;;4973890;28;20037;-84
2023/02/19 07:50:40;;;;;;;23.70;16.42;;;8.90;99.90;;;;;;4963560;28;20044;-83
2023/02/19 07:53:06;;;;;;;30.98;19.42;;;9.00;99.90;;;;;;4980421;28;20045;-81
2023/02/19 07:55:33;;;;;;;34.25;18.58;;;9.00;99.90;;;;;;4991570;28;20034;-81
2023/02/19 07:57:59;;;;;;;31.85;19.35;;;9.00;99.90;;;;;;4978407;28;20038;-80
2023/02/19 08:00:25;;;;;;;32.90;18.60;;;9.00;99.90;;;;;;4979516;28;20045;-81
2023/02/19 08:02:58;;;;;;;34.78;19.35;;;9.10;99.90;;;;;;4983501;28;20030;-82
2023/02/19 08:05:24;;;;;;;29.83;18.63;;;9.10;99.90;;;;;;4988691;28;20132;-81
2023/02/19 08:07:51;;;;;;;32.60;18.15;;;9.10;99.90;;;;;;4964198;28;20117;-81
2023/02/19 08:15:46;;;;;;;29.48;17.08;;;9.10;99.90;;;;;;4996419;28;20061;-81
2023/02/19 08:18:11;;;;;;;26.77;14.05;;;9.20;99.90;;;;;;4981930;28;20030;-81
2023/02/19 08:20:38;;;;;;;20.92;13.73;;;9.60;99.90;;;;;;4957464;28;20030;-81
2023/02/19 08:23:05;;;;;;;15.68;9.73;;;9.20;99.90;;;;;;4993400;28;20041;-81
2023/02/19 08:25:33;;;;;;;24.40;14.60;;;9.20;99.90;;;;;;4976860;28;20503;-82
2023/02/19 08:27:59;;;;;;;18.20;10.55;;;9.20;99.90;;;;;;5003027;28;20077;-82
2023/02/19 08:30:25;;;;;;;22.73;12.68;;;9.50;99.90;;;;;;4985803;28;20490;-80
2023/02/19 08:32:51;;;;;;;23.38;12.15;;;9.30;99.90;;;;;;4966830;28;20133;-81
2023/02/19 08:35:17;;;;;;;20.27;11.27;;;9.20;99.90;;;;;;4993181;28;20117;-80
2023/02/19 08:37:42;;;;;;;24.17;12.07;;;9.20;99.90;;;;;;4965870;28;20043;-81
2023/02/19 08:40:08;;;;;;;26.60;13.13;;;9.40;99.90;;;;;;4950880;28;1145296;-80
2023/02/19 08:42:34;;;;;;;32.53;16.23;;;9.30;99.90;;;;;;4984924;28;20038;-81
2023/02/19 08:45:00;;;;;;;22.85;12.82;;;9.30;99.90;;;;;;4992577;28;20481;-81
2023/02/19 08:47:25;;;;;;;22.70;13.88;;;9.30;99.90;;;;;;4996566;28;20046;-81
2023/02/19 08:49:51;;;;;;;22.77;12.15;;;9.30;99.90;;;;;;4974945;28;20096;-80
2023/02/19 08:52:16;;;;;;;24.30;12.57;;;9.30;99.90;;;;;;4992950;28;20116;-80
2023/02/19 08:54:42;;;;;;;21.67;11.70;;;9.30;99.90;;;;;;4996147;28;25965;-81
2023/02/19 08:57:08;;;;;;;21.20;11.63;;;9.30;99.90;;;;;;4997116;28;20080;-81
2023/02/19 08:59:33;;;;;;;15.30;8.50;;;9.30;99.90;;;;;;4972675;28;20489;-81
2023/02/19 09:02:00;;;;;;;26.73;12.57;;;9.30;99.90;;;;;;4976892;28;20026;-81
2023/02/19 09:04:28;;;;;;;17.92;7.50;;;9.30;99.90;;;;;;4976751;28;20041;-81
2023/02/19 09:06:54;;;;;;;20.90;9.98;;;9.30;99.90;;;;;;4985417;28;20042;-80
2023/02/19 09:09:20;;;;;;;24.75;10.95;;;9.40;99.90;;;;;;4963745;28;20041;-81
2023/02/19 09:11:47;;;;;;;23.20;12.07;;;9.40;99.90;;;;;;4991107;28;20060;-81
2023/02/19 09:14:13;;;;;;;24.25;10.25;;;9.50;99.90;;;;;;4974256;28;20033;-81
2023/02/19 09:16:40;;;;;;;24.30;12.85;;;9.60;99.90;;;;;;4964845;28;20068;-81
2023/02/19 09:19:06;;;;;;;20.67;11.07;;;9.60;99.90;;;;;;4974445;28;20058;-81
2023/02/19 09:21:32;;;;;;;16.17;10.05;;;9.70;99.90;;;;;;4972005;28;20044;-81
2023/02/19 09:23:58;;;;;;;18.35;9.35;;;9.70;99.90;;;;;;4990302;28;20026;-82
2023/02/19 09:26:24;;;;;;;23.70;9.80;;;9.70;99.90;;;;;;4976941;28;20161;-82
2023/02/19 09:28:50;;;;;;;17.15;8.32;;;9.80;99.90;;;;;;4974789;28;20030;-82
2023/02/19 09:31:17;;;;;;;18.92;9.15;;;9.80;99.90;;;;;;4990521;28;20040;-81
2023/02/19 09:33:47;;;;;;;19.05;9.48;;;9.80;99.90;;;;;;4976651;28;20122;-81
2023/02/19 09:36:21;;;;;;;20.55;9.63;;;9.80;99.90;;;;;;4977939;28;20577;-81
2023/02/19 09:38:46;;;;;;;17.67;9.43;;;9.90;99.90;;;;;;4995114;28;20037;-81
2023/02/19 09:41:14;;;;;;;21.45;10.30;;;9.90;99.90;;;;;;4979448;28;20136;-81
2023/02/19 09:43:39;;;;;;;17.00;8.57;;;10.00;99.90;;;;;;4988436;28;20042;-82
2023/02/19 09:46:21;;;;;;;20.58;10.00;;;10.00;99.90;;;;;;4975224;28;20112;-82
2023/02/19 09:48:47;;;;;;;13.15;7.97;;;10.00;99.90;;;;;;4995592;28;20494;-81
2023/02/19 09:51:12;;;;;;;19.20;12.25;;;10.00;99.90;;;;;;4995588;28;20041;-81
2023/02/19 09:53:42;;;;;;;20.58;10.88;;;9.90;99.90;;;;;;4983375;28;20500;-81
2023/02/19 09:56:08;;;;;;;21.42;11.05;;;9.90;99.90;;;;;;4986471;28;20061;-81
2023/02/19 09:58:48;;;;;;;17.92;11.15;;;9.90;99.90;;;;;;4993861;28;20038;-81
2023/02/19 10:01:13;;;;;;;14.55;10.38;;;9.80;99.90;;;;;;4994463;28;20056;-81
2023/02/19 10:03:42;;;;;;;21.92;13.60;;;9.80;99.90;;;;;;4995561;28;20438;-81
2023/02/19 10:06:19;;;;;;;23.50;14.13;;;9.90;99.90;;;;;;4997857;28;20113;-81
2023/02/19 10:08:46;;;;;;;21.17;12.25;;;9.90;99.90;;;;;;4993429;28;20818;-81
2023/02/19 10:11:12;;;;;;;18.17;9.88;;;10.00;99.90;;;;;;4998260;28;20037;-81
2023/02/19 10:13:54;;;;;;;25.67;15.70;;;10.00;99.90;;;;;;4980926;28;20113;-81
2023/02/19 10:16:23;;;;;;;27.92;16.02;;;10.10;99.90;;;;;;5003102;28;20498;-81
2023/02/19 10:18:49;;;;;;;32.22;15.50;;;10.30;99.90;;;;;;5009203;28;20042;-81
2023/02/19 10:21:26;;;;;;;21.65;14.32;;;10.30;99.90;;;;;;4996850;28;20034;-81
2023/02/19 10:24:00;;;;;;;22.90;13.27;;;10.40;99.90;;;;;;4970349;28;20121;-82
2023/02/19 10:26:26;;;;;;;28.60;15.82;;;10.40;99.90;;;;;;4977758;28;20129;-80
2023/02/19 10:28:54;;;;;;;16.65;10.15;;;10.50;99.90;;;;;;5003123;28;20494;-82
2023/02/19 10:31:23;;;;;;;23.60;14.18;;;10.40;99.90;;;;;;4983130;28;20038;-81
2023/02/19 10:33:53;;;;;;;24.80;15.07;;;10.40;99.90;;;;;;4984166;28;20034;-81
2023/02/19 10:36:40;;;;;;;25.52;13.57;;;10.30;99.90;;;;;;4950668;28;20120;-81
2023/02/19 10:39:23;;;;;;;17.85;12.75;;;10.50;99.90;;;;;;4938782;28;20042;-81
2023/02/19 10:41:49;;;;;;;19.40;11.18;;;10.60;99.90;;;;;;4977809;28;20045;-81
2023/02/19 10:44:23;;;;;;;17.23;10.98;;;10.70;99.90;;;;;;4958290;28;20025;-82
2023/02/19 10:46:51;;;;;;;18.15;9.80;;;10.70;99.90;;;;;;4972041;28;20753;-81
2023/02/19 10:49:31;;;;;;;12.55;9.02;;;10.80;99.90;;;;;;4949046;28;20026;-82
2023/02/19 10:52:01;;;;;;;12.77;7.95;;;10.70;99.90;;;;;;4969302;28;20066;-81
2023/02/19 10:54:29;;;;;;;17.77;8.95;;;10.80;99.90;;;;;;4950977;28;20048;-81
2023/02/19 10:57:16;;;;;;;15.10;8.43;;;10.90;99.90;;;;;;4945001;28;20534;-79
2023/02/19 10:59:53;;;;;;;17.40;10.85;;;11.00;99.90;;;;;;4990192;28;20057;-79
2023/02/19 11:02:19;;;;;;;11.77;7.88;;;11.10;99.90;;;;;;4957754;28;20046;-79
2023/02/19 11:05:16;;;;;;;16.48;10.07;;;11.10;99.90;;;;;;4969886;28;20513;-80
2023/02/19 11:07:52;;;;;;;15.57;8.30;;;11.30;99.90;;;;;;4990427;28;20556;-81
2023/02/19 11:10:33;;;;;;;12.85;8.00;;;11.40;99.90;;;;;;4970450;28;20108;-80
2023/02/19 11:13:05;;;;;;;16.33;7.70;;;11.50;99.90;;;;;;4964959;28;20053;-79
2023/02/19 11:15:35;;;;;;;12.23;7.55;;;11.60;99.90;;;;;;4979386;28;20461;-81
2023/02/19 11:18:06;;;;;;;9.73;7.50;;;11.70;99.90;;;;;;4976614;28;20112;-81
2023/02/19 11:20:34;;;;;;;14.43;6.53;;;11.70;99.90;;;;;;4997082;28;20038;-82
2023/02/19 11:23:04;;;;;;;9.32;5.70;;;11.90;99.90;;;;;;4964026;28;20113;-82
2023/02/19 11:25:29;;;;;;;13.25;6.68;;;11.90;99.90;;;;;;4970427;28;20035;-82
2023/02/19 11:27:58;;;;;;;11.02;6.80;;;11.90;99.90;;;;;;4974686;28;20080;-82
2023/02/19 11:30:29;;;;;;;12.23;7.25;;;12.60;99.90;;;;;;4995381;28;20034;-82
2023/02/19 11:33:20;;;;;;;12.13;7.25;;;12.10;99.90;;;;;;5016001;28;20037;-82
2023/02/19 11:35:47;;;;;;;12.75;7.22;;;12.20;99.90;;;;;;4996783;28;20045;-82
2023/02/19 11:38:14;;;;;;;9.57;6.65;;;12.30;99.90;;;;;;4983712;28;20125;-82
2023/02/19 11:41:02;;;;;;;13.75;6.55;;;12.20;99.90;;;;;;4981522;28;20037;-82
2023/02/19 11:43:31;;;;;;;9.63;6.13;;;12.30;99.90;;;;;;4975072;28;20034;-82
2023/02/19 11:46:16;;;;;;;9.77;6.85;;;12.30;99.90;;;;;;4988451;28;20062;-81
2023/02/19 11:49:06;;;;;;;9.98;5.82;;;12.50;99.90;;;;;;5000082;28;20061;-82
2023/02/19 11:51:49;;;;;;;9.25;6.68;;;12.50;99.90;;;;;;4997978;28;20038;-83
2023/02/19 11:54:34;;;;;;;10.23;6.18;;;12.40;99.90;;;;;;5001402;28;20429;-81
2023/02/19 11:57:16;;;;;;;10.97;6.33;;;12.20;99.90;;;;;;4997362;28;20022;-82
2023/02/19 12:00:10;;;;;;;9.95;6.35;;;12.00;99.90;;;;;;5000510;28;20481;-82
2023/02/19 12:02:48;;;;;;;9.73;6.50;;;12.00;99.90;;;;;;4981318;28;20030;-82
2023/02/19 12:05:23;;;;;;;11.50;5.35;;;12.00;99.90;;;;;;4983069;28;20026;-81
2023/02/19 12:08:05;;;;;;;6.28;4.07;;;11.90;99.90;;;;;;4993032;28;20093;-82
2023/02/19 12:10:54;;;;;;;10.25;4.50;;;11.90;99.90;;;;;;4979316;28;20036;-82
2023/02/19 12:13:26;;;;;;;6.13;3.53;;;11.90;99.90;;;;;;4982223;28;20033;-82
2023/02/19 12:16:19;;;;;;;7.93;5.35;;;11.80;99.90;;;;;;4985842;28;20073;-83
2023/02/19 12:19:03;;;;;;;7.63;5.07;;;11.70;99.90;;;;;;4999588;28;20084;-82
2023/02/19 12:21:53;;;;;;;5.95;5.03;;;11.60;99.90;;;;;;5008446;28;20038;-82
2023/02/19 12:24:37;;;;;;;7.28;4.75;;;11.40;99.90;;;;;;4657206;28;9999712;-82
2023/02/19 12:27:40;;;;;;;12.02;6.15;;;11.40;99.90;;;;;;4995104;28;20441;-82
2023/02/19 12:30:31;;;;;;;9.63;6.43;;;11.30;99.90;;;;;;5012403;28;20060;-82
2023/02/19 12:33:22;;;;;;;9.00;5.30;;;11.30;99.90;;;;;;4982482;28;20041;-82
2023/02/19 12:36:09;;;;;;;8.77;5.15;;;11.40;99.90;;;;;;4989325;28;20057;-83
2023/02/19 12:38:49;;;;;;;5.45;4.25;;;11.40;99.90;;;;;;4985970;28;20064;-83
2023/02/19 12:41:33;;;;;;;7.90;4.65;;;11.30;99.90;;;;;;4993799;28;20068;-82
2023/02/19 12:44:26;;;;;;;7.68;4.45;;;11.30;99.90;;;;;;5011104;28;20034;-82
2023/02/19 12:46:56;;;;;;;6.20;4.47;;;11.40;99.90;;;;;;4969662;28;20030;-82
2023/02/19 12:49:30;;;;;;;4.63;2.55;;;11.30;99.90;;;;;;4978780;28;20068;-82
2023/02/19 12:52:20;;;;;;;4.35;1.95;;;11.10;99.90;;;;;;4987701;28;20034;-82
2023/02/19 12:54:50;;;;;;;5.00;1.35;;;11.10;99.90;;;;;;4978569;28;20037;-82
2023/02/19 12:57:26;;;;;;;1.58;1.33;;;11.00;99.90;;;;;;4978971;28;20060;-82
2023/02/19 12:59:54;;;;;;;2.78;1.13;;;11.10;99.90;;;;;;4979267;28;20030;-83
2023/02/19 13:02:28;;;;;;;2.33;1.17;;;11.10;99.90;;;;;;4995885;28;20057;-83
2023/02/19 13:05:01;;;;;;;1.17;1.00;;;11.20;99.90;;;;;;4976590;28;20065;-83
2023/02/19 13:07:51;;;;;;;3.78;1.35;;;11.20;99.90;;;;;;4996076;28;20038;-84
2023/02/19 13:10:17;;;;;;;1.70;0.93;;;11.30;99.90;;;;;;4996733;28;20030;-83
2023/02/19 13:12:43;;;;;;;2.30;1.05;;;11.30;99.90;;;;;;4996595;28;20045;-84
2023/02/19 13:15:14;;;;;;;1.20;1.10;;;11.50;99.90;;;;;;4998494;28;20030;-83
2023/02/19 13:17:44;;;;;;;3.83;1.13;;;11.50;99.90;;;;;;4993636;28;20049;-83
2023/02/19 13:20:33;;;;;;;2.05;1.50;;;11.60;99.90;;;;;;4980766;28;20497;-83
2023/02/19 13:26:08;;;;;;;3.72;1.50;;;11.60;99.90;;;;;;4990697;28;20065;-81